sensor_id;sensor_type;location;lat;lon;timestamp;P1;durP1;ratioP1;P2;durP2;ratioP2
2011;SDS011;1009;51.436;6.972;2023-08-31T00:01:35;3.80;;;1.73;;
2011;SDS011;1009;51.436;6.972;2023-08-31T00:04:03;3.03;;;2.20;;
2011;SDS011;1009;51.436;6.972;2023-08-31T00:06:33;3.80;;;1.93;;
2011;SDS011;1009;51.436;6.972;2023-08-31T00:09:03;2.80;;;2.37;;
2011;SDS011;1009;51.436;6.972;2023-08-31T00:11:34;5.73;;;2.23;;
2011;SDS011;1009;51.436;6.972;2023-08-31T00:14:01;5.20;;;2.57;;
2011;SDS011;1009;51.436;6.972;2023-08-31T00:16:28;3.23;;;1.90;;
2011;SDS011;1009;51.436;6.972;2023-08-31T00:18:55;2.73;;;1.97;;
2011;SDS011;1009;51.436;6.972;2023-08-31T00:21:22;4.20;;;2.17;;
2011;SDS011;1009;51.436;6.972;2023-08-31T00:23:50;2.60;;;2.30;;
2011;SDS011;1009;51.436;6.972;2023-08-31T00:26:17;3.00;;;2.00;;
2011;SDS011;1009;51.436;6.972;2023-08-31T00:28:43;7.77;;;2.30;;
2011;SDS011;1009;51.436;6.972;2023-08-31T00:31:10;8.63;;;2.50;;
2011;SDS011;1009;51.436;6.972;2023-08-31T00:33:37;4.27;;;2.27;;
2011;SDS011;1009;51.436;6.972;2023-08-31T00:36:04;2.70;;;2.20;;
2011;SDS011;1009;51.436;6.972;2023-08-31T00:38:31;3.87;;;2.90;;
2011;SDS011;1009;51.436;6.972;2023-08-31T00:40:59;4.07;;;2.07;;
2011;SDS011;1009;51.436;6.972;2023-08-31T00:43:27;4.60;;;2.23;;
2011;SDS011;1009;51.436;6.972;2023-08-31T00:45:54;3.33;;;2.63;;
2011;SDS011;1009;51.436;6.972;2023-08-31T00:48:23;7.33;;;2.40;;
2011;SDS011;1009;51.436;6.972;2023-08-31T00:50:50;3.53;;;2.40;;
2011;SDS011;1009;51.436;6.972;2023-08-31T00:53:18;6.40;;;3.00;;
2011;SDS011;1009;51.436;6.972;2023-08-31T00:55:44;5.73;;;2.70;;
2011;SDS011;1009;51.436;6.972;2023-08-31T00:58:13;3.50;;;2.30;;
2011;SDS011;1009;51.436;6.972;2023-08-31T01:00:43;3.27;;;1.93;;
2011;SDS011;1009;51.436;6.972;2023-08-31T01:03:15;5.47;;;2.50;;
2011;SDS011;1009;51.436;6.972;2023-08-31T01:05:50;7.43;;;3.30;;
2011;SDS011;1009;51.436;6.972;2023-08-31T01:08:25;3.80;;;2.60;;
2011;SDS011;1009;51.436;6.972;2023-08-31T01:11:01;4.50;;;2.60;;
2011;SDS011;1009;51.436;6.972;2023-08-31T01:13:35;6.50;;;3.03;;
2011;SDS011;1009;51.436;6.972;2023-08-31T01:16:05;5.37;;;2.93;;
2011;SDS011;1009;51.436;6.972;2023-08-31T01:18:33;4.77;;;2.90;;
2011;SDS011;1009;51.436;6.972;2023-08-31T01:21:05;5.20;;;3.33;;
2011;SDS011;1009;51.436;6.972;2023-08-31T01:23:51;7.23;;;4.10;;
2011;SDS011;1009;51.436;6.972;2023-08-31T01:26:18;4.03;;;3.40;;
2011;SDS011;1009;51.436;6.972;2023-08-31T01:28:45;3.23;;;2.53;;
2011;SDS011;1009;51.436;6.972;2023-08-31T01:31:12;6.17;;;3.40;;
2011;SDS011;1009;51.436;6.972;2023-08-31T01:33:39;4.87;;;2.67;;
2011;SDS011;1009;51.436;6.972;2023-08-31T01:36:08;7.73;;;2.83;;
2011;SDS011;1009;51.436;6.972;2023-08-31T01:38:40;4.73;;;3.30;;
2011;SDS011;1009;51.436;6.972;2023-08-31T01:41:13;4.20;;;2.63;;
2011;SDS011;1009;51.436;6.972;2023-08-31T01:43:42;5.77;;;3.90;;
2011;SDS011;1009;51.436;6.972;2023-08-31T01:46:11;3.80;;;3.07;;
2011;SDS011;1009;51.436;6.972;2023-08-31T01:48:39;9.23;;;3.67;;
2011;SDS011;1009;51.436;6.972;2023-08-31T01:51:06;4.80;;;3.10;;
2011;SDS011;1009;51.436;6.972;2023-08-31T01:53:34;6.67;;;3.57;;
2011;SDS011;1009;51.436;6.972;2023-08-31T01:56:00;5.13;;;3.37;;
2011;SDS011;1009;51.436;6.972;2023-08-31T01:58:28;7.30;;;2.87;;
2011;SDS011;1009;51.436;6.972;2023-08-31T02:00:55;4.73;;;3.97;;
2011;SDS011;1009;51.436;6.972;2023-08-31T02:03:22;8.37;;;2.97;;
2011;SDS011;1009;51.436;6.972;2023-08-31T02:05:49;3.80;;;2.73;;
2011;SDS011;1009;51.436;6.972;2023-08-31T02:08:15;4.13;;;3.70;;
2011;SDS011;1009;51.436;6.972;2023-08-31T02:10:43;5.10;;;3.80;;
2011;SDS011;1009;51.436;6.972;2023-08-31T02:13:09;4.67;;;3.23;;
2011;SDS011;1009;51.436;6.972;2023-08-31T02:15:38;6.70;;;3.30;;
2011;SDS011;1009;51.436;6.972;2023-08-31T02:18:07;6.60;;;3.27;;
2011;SDS011;1009;51.436;6.972;2023-08-31T02:20:34;4.30;;;2.80;;
2011;SDS011;1009;51.436;6.972;2023-08-31T02:23:00;8.80;;;3.70;;
2011;SDS011;1009;51.436;6.972;2023-08-31T02:25:27;5.67;;;3.77;;
2011;SDS011;1009;51.436;6.972;2023-08-31T02:27:54;8.33;;;3.13;;
2011;SDS011;1009;51.436;6.972;2023-08-31T02:30:21;4.23;;;2.80;;
2011;SDS011;1009;51.436;6.972;2023-08-31T02:32:49;5.63;;;3.67;;
2011;SDS011;1009;51.436;6.972;2023-08-31T02:35:15;8.60;;;4.40;;
2011;SDS011;1009;51.436;6.972;2023-08-31T02:37:42;4.60;;;2.90;;
2011;SDS011;1009;51.436;6.972;2023-08-31T02:40:09;5.13;;;3.23;;
2011;SDS011;1009;51.436;6.972;2023-08-31T02:42:37;4.83;;;3.37;;
2011;SDS011;1009;51.436;6.972;2023-08-31T02:45:04;5.27;;;3.63;;
2011;SDS011;1009;51.436;6.972;2023-08-31T02:47:31;6.07;;;3.33;;
2011;SDS011;1009;51.436;6.972;2023-08-31T02:49:59;4.30;;;3.30;;
2011;SDS011;1009;51.436;6.972;2023-08-31T02:52:26;4.40;;;3.47;;
2011;SDS011;1009;51.436;6.972;2023-08-31T02:54:53;3.00;;;2.67;;
2011;SDS011;1009;51.436;6.972;2023-08-31T02:57:20;4.20;;;2.63;;
2011;SDS011;1009;51.436;6.972;2023-08-31T02:59:49;5.27;;;3.50;;
2011;SDS011;1009;51.436;6.972;2023-08-31T03:02:16;4.80;;;3.47;;
2011;SDS011;1009;51.436;6.972;2023-08-31T03:04:42;3.23;;;2.60;;
2011;SDS011;1009;51.436;6.972;2023-08-31T03:07:10;6.23;;;3.30;;
2011;SDS011;1009;51.436;6.972;2023-08-31T03:09:38;4.53;;;3.00;;
2011;SDS011;1009;51.436;6.972;2023-08-31T03:12:06;5.27;;;3.00;;
2011;SDS011;1009;51.436;6.972;2023-08-31T03:14:33;7.17;;;3.43;;
2011;SDS011;1009;51.436;6.972;2023-08-31T03:16:59;8.10;;;3.57;;
2011;SDS011;1009;51.436;6.972;2023-08-31T03:19:26;3.27;;;2.97;;
2011;SDS011;1009;51.436;6.972;2023-08-31T03:21:53;3.80;;;2.57;;
2011;SDS011;1009;51.436;6.972;2023-08-31T03:24:21;5.73;;;2.40;;
2011;SDS011;1009;51.436;6.972;2023-08-31T03:26:48;4.17;;;3.00;;
2011;SDS011;1009;51.436;6.972;2023-08-31T03:29:15;7.83;;;3.20;;
2011;SDS011;1009;51.436;6.972;2023-08-31T03:31:41;5.70;;;2.40;;
2011;SDS011;1009;51.436;6.972;2023-08-31T03:34:08;5.90;;;3.53;;
2011;SDS011;1009;51.436;6.972;2023-08-31T03:36:35;4.00;;;2.90;;
2011;SDS011;1009;51.436;6.972;2023-08-31T03:39:02;7.60;;;2.97;;
2011;SDS011;1009;51.436;6.972;2023-08-31T03:41:31;9.23;;;3.17;;
2011;SDS011;1009;51.436;6.972;2023-08-31T03:43:57;4.50;;;3.10;;
2011;SDS011;1009;51.436;6.972;2023-08-31T03:46:24;6.17;;;3.60;;
2011;SDS011;1009;51.436;6.972;2023-08-31T03:48:51;6.07;;;3.70;;
2011;SDS011;1009;51.436;6.972;2023-08-31T03:51:18;4.10;;;3.00;;
2011;SDS011;1009;51.436;6.972;2023-08-31T03:53:45;6.30;;;3.20;;
2011;SDS011;1009;51.436;6.972;2023-08-31T03:56:12;3.10;;;2.80;;
2011;SDS011;1009;51.436;6.972;2023-08-31T03:58:40;5.23;;;3.80;;
2011;SDS011;1009;51.436;6.972;2023-08-31T04:01:06;5.70;;;3.93;;
2011;SDS011;1009;51.436;6.972;2023-08-31T04:03:35;4.87;;;3.47;;
2011;SDS011;1009;51.436;6.972;2023-08-31T04:06:01;5.73;;;4.17;;
2011;SDS011;1009;51.436;6.972;2023-08-31T04:08:30;4.50;;;3.60;;
2011;SDS011;1009;51.436;6.972;2023-08-31T04:10:56;5.73;;;3.67;;
2011;SDS011;1009;51.436;6.972;2023-08-31T04:13:23;6.30;;;4.87;;
2011;SDS011;1009;51.436;6.972;2023-08-31T04:15:52;5.07;;;4.07;;
2011;SDS011;1009;51.436;6.972;2023-08-31T04:18:19;5.00;;;3.30;;
2011;SDS011;1009;51.436;6.972;2023-08-31T04:20:47;4.00;;;3.30;;
2011;SDS011;1009;51.436;6.972;2023-08-31T04:23:15;4.90;;;4.07;;
2011;SDS011;1009;51.436;6.972;2023-08-31T04:25:42;5.70;;;3.90;;
2011;SDS011;1009;51.436;6.972;2023-08-31T04:28:09;6.30;;;3.57;;
2011;SDS011;1009;51.436;6.972;2023-08-31T04:30:35;5.80;;;4.10;;
2011;SDS011;1009;51.436;6.972;2023-08-31T04:33:04;4.53;;;3.97;;
2011;SDS011;1009;51.436;6.972;2023-08-31T04:35:32;7.30;;;3.93;;
2011;SDS011;1009;51.436;6.972;2023-08-31T04:37:58;5.67;;;4.70;;
2011;SDS011;1009;51.436;6.972;2023-08-31T04:40:26;6.10;;;4.33;;
2011;SDS011;1009;51.436;6.972;2023-08-31T04:42:54;5.57;;;4.00;;
2011;SDS011;1009;51.436;6.972;2023-08-31T04:45:21;7.00;;;6.30;;
2011;SDS011;1009;51.436;6.972;2023-08-31T04:47:47;8.83;;;4.97;;
2011;SDS011;1009;51.436;6.972;2023-08-31T04:50:17;5.43;;;4.00;;
2011;SDS011;1009;51.436;6.972;2023-08-31T04:52:44;7.37;;;5.27;;
2011;SDS011;1009;51.436;6.972;2023-08-31T04:55:12;6.83;;;4.97;;
2011;SDS011;1009;51.436;6.972;2023-08-31T04:57:39;5.20;;;4.30;;
2011;SDS011;1009;51.436;6.972;2023-08-31T05:00:06;6.87;;;4.40;;
2011;SDS011;1009;51.436;6.972;2023-08-31T05:02:35;8.47;;;5.13;;
2011;SDS011;1009;51.436;6.972;2023-08-31T05:05:01;6.67;;;4.40;;
2011;SDS011;1009;51.436;6.972;2023-08-31T05:07:30;8.00;;;5.43;;
2011;SDS011;1009;51.436;6.972;2023-08-31T05:09:57;8.37;;;5.43;;
2011;SDS011;1009;51.436;6.972;2023-08-31T05:12:24;7.10;;;5.70;;
2011;SDS011;1009;51.436;6.972;2023-08-31T05:14:51;7.37;;;4.90;;
2011;SDS011;1009;51.436;6.972;2023-08-31T05:17:17;7.33;;;5.07;;
2011;SDS011;1009;51.436;6.972;2023-08-31T05:19:44;6.93;;;5.30;;
2011;SDS011;1009;51.436;6.972;2023-08-31T05:22:12;6.60;;;5.17;;
2011;SDS011;1009;51.436;6.972;2023-08-31T05:24:40;9.00;;;5.50;;
2011;SDS011;1009;51.436;6.972;2023-08-31T05:27:07;6.73;;;4.90;;
2011;SDS011;1009;51.436;6.972;2023-08-31T05:29:33;5.20;;;4.23;;
2011;SDS011;1009;51.436;6.972;2023-08-31T05:32:00;10.00;;;4.90;;
2011;SDS011;1009;51.436;6.972;2023-08-31T05:34:27;8.10;;;5.57;;
2011;SDS011;1009;51.436;6.972;2023-08-31T05:36:55;8.27;;;4.93;;
2011;SDS011;1009;51.436;6.972;2023-08-31T05:39:22;5.90;;;4.07;;
2011;SDS011;1009;51.436;6.972;2023-08-31T05:41:51;8.37;;;4.57;;
2011;SDS011;1009;51.436;6.972;2023-08-31T05:44:17;8.20;;;5.77;;
2011;SDS011;1009;51.436;6.972;2023-08-31T05:46:44;8.07;;;4.80;;
2011;SDS011;1009;51.436;6.972;2023-08-31T05:49:11;6.43;;;4.20;;
2011;SDS011;1009;51.436;6.972;2023-08-31T05:51:37;7.50;;;4.80;;
2011;SDS011;1009;51.436;6.972;2023-08-31T05:54:04;7.80;;;5.43;;
2011;SDS011;1009;51.436;6.972;2023-08-31T05:56:35;8.00;;;4.23;;
2011;SDS011;1009;51.436;6.972;2023-08-31T05:59:04;5.80;;;4.40;;
2011;SDS011;1009;51.436;6.972;2023-08-31T06:01:30;8.13;;;4.60;;
2011;SDS011;1009;51.436;6.972;2023-08-31T06:03:57;5.70;;;4.07;;
2011;SDS011;1009;51.436;6.972;2023-08-31T06:06:24;10.07;;;5.13;;
2011;SDS011;1009;51.436;6.972;2023-08-31T06:08:51;9.50;;;5.17;;
2011;SDS011;1009;51.436;6.972;2023-08-31T06:11:18;7.17;;;4.50;;
2011;SDS011;1009;51.436;6.972;2023-08-31T06:13:45;6.43;;;4.67;;
2011;SDS011;1009;51.436;6.972;2023-08-31T06:16:13;6.30;;;4.53;;
2011;SDS011;1009;51.436;6.972;2023-08-31T06:18:40;6.13;;;4.60;;
2011;SDS011;1009;51.436;6.972;2023-08-31T06:21:06;6.97;;;4.87;;
2011;SDS011;1009;51.436;6.972;2023-08-31T06:23:33;6.67;;;5.10;;
2011;SDS011;1009;51.436;6.972;2023-08-31T06:26:00;5.90;;;4.60;;
2011;SDS011;1009;51.436;6.972;2023-08-31T06:28:27;7.33;;;4.60;;
2011;SDS011;1009;51.436;6.972;2023-08-31T06:30:53;7.03;;;5.10;;
2011;SDS011;1009;51.436;6.972;2023-08-31T06:33:21;6.10;;;4.67;;
2011;SDS011;1009;51.436;6.972;2023-08-31T06:35:48;8.30;;;5.37;;
2011;SDS011;1009;51.436;6.972;2023-08-31T06:38:16;6.67;;;5.07;;
2011;SDS011;1009;51.436;6.972;2023-08-31T06:40:43;6.50;;;4.57;;
2011;SDS011;1009;51.436;6.972;2023-08-31T06:43:13;6.70;;;4.13;;
2011;SDS011;1009;51.436;6.972;2023-08-31T06:45:40;7.80;;;4.40;;
2011;SDS011;1009;51.436;6.972;2023-08-31T06:48:06;5.00;;;4.50;;
2011;SDS011;1009;51.436;6.972;2023-08-31T06:50:35;9.80;;;4.47;;
2011;SDS011;1009;51.436;6.972;2023-08-31T06:53:01;6.80;;;4.37;;
2011;SDS011;1009;51.436;6.972;2023-08-31T06:55:29;7.93;;;5.10;;
2011;SDS011;1009;51.436;6.972;2023-08-31T06:57:57;5.97;;;3.90;;
2011;SDS011;1009;51.436;6.972;2023-08-31T07:00:24;7.23;;;3.70;;
2011;SDS011;1009;51.436;6.972;2023-08-31T07:02:51;6.03;;;4.37;;
2011;SDS011;1009;51.436;6.972;2023-08-31T07:05:18;4.90;;;4.10;;
2011;SDS011;1009;51.436;6.972;2023-08-31T07:07:51;7.97;;;4.37;;
2011;SDS011;1009;51.436;6.972;2023-08-31T07:10:19;9.47;;;4.17;;
2011;SDS011;1009;51.436;6.972;2023-08-31T07:12:45;6.80;;;4.07;;
2011;SDS011;1009;51.436;6.972;2023-08-31T07:15:12;8.57;;;4.53;;
2011;SDS011;1009;51.436;6.972;2023-08-31T07:17:39;5.47;;;3.43;;
2011;SDS011;1009;51.436;6.972;2023-08-31T07:20:06;7.50;;;3.83;;
2011;SDS011;1009;51.436;6.972;2023-08-31T07:22:34;5.40;;;3.90;;
2011;SDS011;1009;51.436;6.972;2023-08-31T07:25:02;5.33;;;3.90;;
2011;SDS011;1009;51.436;6.972;2023-08-31T07:27:29;6.63;;;3.07;;
2011;SDS011;1009;51.436;6.972;2023-08-31T07:29:56;5.53;;;3.47;;
2011;SDS011;1009;51.436;6.972;2023-08-31T07:32:23;5.23;;;3.10;;
2011;SDS011;1009;51.436;6.972;2023-08-31T07:34:49;4.93;;;4.13;;
2011;SDS011;1009;51.436;6.972;2023-08-31T07:37:16;5.73;;;3.37;;
2011;SDS011;1009;51.436;6.972;2023-08-31T07:39:43;4.50;;;2.53;;
2011;SDS011;1009;51.436;6.972;2023-08-31T07:42:12;6.03;;;3.23;;
2011;SDS011;1009;51.436;6.972;2023-08-31T07:44:43;7.10;;;3.00;;
2011;SDS011;1009;51.436;6.972;2023-08-31T07:47:11;3.70;;;2.90;;
2011;SDS011;1009;51.436;6.972;2023-08-31T07:49:37;3.27;;;2.63;;
2011;SDS011;1009;51.436;6.972;2023-08-31T07:52:04;5.20;;;2.50;;
2011;SDS011;1009;51.436;6.972;2023-08-31T07:54:31;4.73;;;3.43;;
2011;SDS011;1009;51.436;6.972;2023-08-31T07:56:58;3.70;;;2.87;;
2011;SDS011;1009;51.436;6.972;2023-08-31T07:59:27;4.70;;;2.87;;
2011;SDS011;1009;51.436;6.972;2023-08-31T08:01:53;6.30;;;3.70;;
2011;SDS011;1009;51.436;6.972;2023-08-31T08:04:21;5.13;;;2.70;;
2011;SDS011;1009;51.436;6.972;2023-08-31T08:06:49;4.37;;;2.63;;
2011;SDS011;1009;51.436;6.972;2023-08-31T08:09:16;3.07;;;2.47;;
2011;SDS011;1009;51.436;6.972;2023-08-31T08:11:43;2.97;;;2.50;;
2011;SDS011;1009;51.436;6.972;2023-08-31T08:14:10;5.43;;;3.33;;
2011;SDS011;1009;51.436;6.972;2023-08-31T08:16:38;2.70;;;2.20;;
2011;SDS011;1009;51.436;6.972;2023-08-31T08:19:05;4.30;;;2.63;;
2011;SDS011;1009;51.436;6.972;2023-08-31T08:21:33;4.23;;;3.10;;
2011;SDS011;1009;51.436;6.972;2023-08-31T08:24:00;3.80;;;2.40;;
2011;SDS011;1009;51.436;6.972;2023-08-31T08:26:26;5.67;;;3.17;;
2011;SDS011;1009;51.436;6.972;2023-08-31T08:28:53;3.60;;;2.53;;
2011;SDS011;1009;51.436;6.972;2023-08-31T08:31:20;4.80;;;2.77;;
2011;SDS011;1009;51.436;6.972;2023-08-31T08:33:48;3.60;;;3.10;;
2011;SDS011;1009;51.436;6.972;2023-08-31T08:36:14;4.07;;;3.40;;
2011;SDS011;1009;51.436;6.972;2023-08-31T08:38:41;4.87;;;2.53;;
2011;SDS011;1009;51.436;6.972;2023-08-31T08:41:08;3.47;;;2.73;;
2011;SDS011;1009;51.436;6.972;2023-08-31T08:43:36;4.27;;;2.63;;
2011;SDS011;1009;51.436;6.972;2023-08-31T08:46:05;3.63;;;2.70;;
2011;SDS011;1009;51.436;6.972;2023-08-31T08:48:33;3.40;;;2.60;;
2011;SDS011;1009;51.436;6.972;2023-08-31T08:51:02;3.87;;;2.37;;
2011;SDS011;1009;51.436;6.972;2023-08-31T08:53:29;2.97;;;2.13;;
2011;SDS011;1009;51.436;6.972;2023-08-31T08:55:56;3.77;;;2.33;;
2011;SDS011;1009;51.436;6.972;2023-08-31T08:58:24;3.70;;;2.40;;
2011;SDS011;1009;51.436;6.972;2023-08-31T09:00:51;4.23;;;2.53;;
2011;SDS011;1009;51.436;6.972;2023-08-31T09:03:20;5.53;;;2.20;;
2011;SDS011;1009;51.436;6.972;2023-08-31T09:05:47;3.53;;;2.87;;
2011;SDS011;1009;51.436;6.972;2023-08-31T09:08:15;4.83;;;2.30;;
2011;SDS011;1009;51.436;6.972;2023-08-31T09:10:42;4.40;;;2.50;;
2011;SDS011;1009;51.436;6.972;2023-08-31T09:13:10;5.33;;;2.43;;
2011;SDS011;1009;51.436;6.972;2023-08-31T09:15:41;4.27;;;2.80;;
2011;SDS011;1009;51.436;6.972;2023-08-31T09:18:13;3.63;;;2.33;;
2011;SDS011;1009;51.436;6.972;2023-08-31T09:20:44;3.50;;;3.20;;
2011;SDS011;1009;51.436;6.972;2023-08-31T09:23:12;3.87;;;2.80;;
2011;SDS011;1009;51.436;6.972;2023-08-31T09:25:44;4.20;;;3.00;;
2011;SDS011;1009;51.436;6.972;2023-08-31T09:28:13;3.37;;;2.93;;
2011;SDS011;1009;51.436;6.972;2023-08-31T09:30:41;3.13;;;2.63;;
2011;SDS011;1009;51.436;6.972;2023-08-31T09:33:09;3.40;;;2.60;;
2011;SDS011;1009;51.436;6.972;2023-08-31T09:35:39;4.20;;;2.20;;
2011;SDS011;1009;51.436;6.972;2023-08-31T09:38:09;3.97;;;2.20;;
2011;SDS011;1009;51.436;6.972;2023-08-31T09:40:36;2.30;;;1.80;;
2011;SDS011;1009;51.436;6.972;2023-08-31T09:43:04;3.70;;;2.83;;
2011;SDS011;1009;51.436;6.972;2023-08-31T09:45:32;4.00;;;2.27;;
2011;SDS011;1009;51.436;6.972;2023-08-31T09:48:00;2.83;;;1.63;;
2011;SDS011;1009;51.436;6.972;2023-08-31T09:50:28;3.20;;;1.87;;
2011;SDS011;1009;51.436;6.972;2023-08-31T09:52:58;4.37;;;2.33;;
2011;SDS011;1009;51.436;6.972;2023-08-31T09:55:29;2.30;;;1.90;;
2011;SDS011;1009;51.436;6.972;2023-08-31T09:57:57;4.30;;;2.37;;
2011;SDS011;1009;51.436;6.972;2023-08-31T10:00:27;4.50;;;1.90;;
2011;SDS011;1009;51.436;6.972;2023-08-31T10:02:56;2.40;;;2.03;;
2011;SDS011;1009;51.436;6.972;2023-08-31T10:05:24;4.80;;;2.10;;
2011;SDS011;1009;51.436;6.972;2023-08-31T10:07:51;4.03;;;2.83;;
2011;SDS011;1009;51.436;6.972;2023-08-31T10:10:18;3.90;;;2.53;;
2011;SDS011;1009;51.436;6.972;2023-08-31T10:12:47;2.50;;;2.00;;
2011;SDS011;1009;51.436;6.972;2023-08-31T10:15:15;3.77;;;2.03;;
2011;SDS011;1009;51.436;6.972;2023-08-31T10:17:43;3.70;;;1.87;;
2011;SDS011;1009;51.436;6.972;2023-08-31T10:20:11;5.27;;;2.03;;
2011;SDS011;1009;51.436;6.972;2023-08-31T10:22:39;4.50;;;2.00;;
2011;SDS011;1009;51.436;6.972;2023-08-31T10:25:06;3.17;;;1.60;;
2011;SDS011;1009;51.436;6.972;2023-08-31T10:27:36;5.37;;;1.70;;
2011;SDS011;1009;51.436;6.972;2023-08-31T10:30:14;1.70;;;1.50;;
2011;SDS011;1009;51.436;6.972;2023-08-31T10:33:03;2.00;;;1.30;;
2011;SDS011;1009;51.436;6.972;2023-08-31T10:35:50;1.23;;;1.13;;
2011;SDS011;1009;51.436;6.972;2023-08-31T10:38:23;1.63;;;1.03;;
2011;SDS011;1009;51.436;6.972;2023-08-31T10:43:46;1.77;;;1.50;;
2011;SDS011;1009;51.436;6.972;2023-08-31T10:46:19;3.00;;;1.80;;
2011;SDS011;1009;51.436;6.972;2023-08-31T10:48:54;2.57;;;1.50;;
2011;SDS011;1009;51.436;6.972;2023-08-31T10:51:22;2.67;;;1.30;;
2011;SDS011;1009;51.436;6.972;2023-08-31T10:53:50;4.70;;;1.30;;
2011;SDS011;1009;51.436;6.972;2023-08-31T10:56:17;6.63;;;1.90;;
2011;SDS011;1009;51.436;6.972;2023-08-31T10:58:54;3.10;;;1.33;;
2011;SDS011;1009;51.436;6.972;2023-08-31T11:04:21;1.60;;;1.20;;
2011;SDS011;1009;51.436;6.972;2023-08-31T11:06:49;2.23;;;1.57;;
2011;SDS011;1009;51.436;6.972;2023-08-31T11:09:31;2.00;;;1.60;;
2011;SDS011;1009;51.436;6.972;2023-08-31T11:11:58;1.90;;;1.20;;
2011;SDS011;1009;51.436;6.972;2023-08-31T11:14:25;2.50;;;1.40;;
2011;SDS011;1009;51.436;6.972;2023-08-31T11:16:58;4.00;;;2.10;;
2011;SDS011;1009;51.436;6.972;2023-08-31T11:19:26;2.60;;;1.40;;
2011;SDS011;1009;51.436;6.972;2023-08-31T11:21:54;2.67;;;1.20;;
2011;SDS011;1009;51.436;6.972;2023-08-31T11:24:21;3.20;;;2.10;;
2011;SDS011;1009;51.436;6.972;2023-08-31T11:26:48;3.00;;;2.03;;
2011;SDS011;1009;51.436;6.972;2023-08-31T11:29:15;3.70;;;1.67;;
2011;SDS011;1009;51.436;6.972;2023-08-31T11:31:42;2.87;;;1.70;;
2011;SDS011;1009;51.436;6.972;2023-08-31T11:34:11;2.90;;;1.53;;
2011;SDS011;1009;51.436;6.972;2023-08-31T11:36:40;4.23;;;1.97;;
2011;SDS011;1009;51.436;6.972;2023-08-31T11:39:08;3.07;;;1.40;;
2011;SDS011;1009;51.436;6.972;2023-08-31T11:41:35;1.87;;;1.77;;
2011;SDS011;1009;51.436;6.972;2023-08-31T11:44:06;2.83;;;1.60;;
2011;SDS011;1009;51.436;6.972;2023-08-31T11:46:33;4.00;;;1.83;;
2011;SDS011;1009;51.436;6.972;2023-08-31T11:49:00;3.83;;;1.83;;
2011;SDS011;1009;51.436;6.972;2023-08-31T11:51:29;1.63;;;1.37;;
2011;SDS011;1009;51.436;6.972;2023-08-31T11:53:58;5.00;;;1.70;;
2011;SDS011;1009;51.436;6.972;2023-08-31T11:56:25;3.00;;;1.80;;
2011;SDS011;1009;51.436;6.972;2023-08-31T11:58:52;2.77;;;1.47;;
2011;SDS011;1009;51.436;6.972;2023-08-31T12:01:19;2.27;;;1.43;;
2011;SDS011;1009;51.436;6.972;2023-08-31T12:03:47;1.40;;;1.17;;
2011;SDS011;1009;51.436;6.972;2023-08-31T12:06:14;1.77;;;1.40;;
2011;SDS011;1009;51.436;6.972;2023-08-31T12:08:42;3.33;;;1.60;;
2011;SDS011;1009;51.436;6.972;2023-08-31T12:11:10;4.97;;;1.60;;
2011;SDS011;1009;51.436;6.972;2023-08-31T12:13:37;6.80;;;1.63;;
2011;SDS011;1009;51.436;6.972;2023-08-31T12:16:11;1.93;;;1.30;;
2011;SDS011;1009;51.436;6.972;2023-08-31T12:18:38;2.70;;;1.30;;
2011;SDS011;1009;51.436;6.972;2023-08-31T12:21:06;1.60;;;1.00;;
2011;SDS011;1009;51.436;6.972;2023-08-31T12:23:33;3.03;;;1.43;;
2011;SDS011;1009;51.436;6.972;2023-08-31T12:26:00;3.00;;;1.30;;
2011;SDS011;1009;51.436;6.972;2023-08-31T12:28:29;2.50;;;1.50;;
2011;SDS011;1009;51.436;6.972;2023-08-31T12:30:56;2.20;;;1.10;;
2011;SDS011;1009;51.436;6.972;2023-08-31T12:33:23;1.63;;;1.53;;
2011;SDS011;1009;51.436;6.972;2023-08-31T12:35:50;3.43;;;1.50;;
2011;SDS011;1009;51.436;6.972;2023-08-31T12:38:17;2.43;;;1.40;;
2011;SDS011;1009;51.436;6.972;2023-08-31T12:40:45;1.67;;;1.20;;
2011;SDS011;1009;51.436;6.972;2023-08-31T12:43:11;3.77;;;1.83;;
2011;SDS011;1009;51.436;6.972;2023-08-31T12:45:39;2.77;;;1.60;;
2011;SDS011;1009;51.436;6.972;2023-08-31T12:48:06;3.40;;;1.53;;
2011;SDS011;1009;51.436;6.972;2023-08-31T12:50:33;4.43;;;1.57;;
2011;SDS011;1009;51.436;6.972;2023-08-31T12:53:00;1.97;;;1.20;;
2011;SDS011;1009;51.436;6.972;2023-08-31T12:55:27;2.17;;;1.60;;
2011;SDS011;1009;51.436;6.972;2023-08-31T12:57:55;6.67;;;1.87;;
2011;SDS011;1009;51.436;6.972;2023-08-31T13:00:22;3.93;;;1.80;;
2011;SDS011;1009;51.436;6.972;2023-08-31T13:02:51;3.20;;;1.60;;
2011;SDS011;1009;51.436;6.972;2023-08-31T13:05:18;2.30;;;1.50;;
2011;SDS011;1009;51.436;6.972;2023-08-31T13:07:45;3.00;;;1.50;;
2011;SDS011;1009;51.436;6.972;2023-08-31T13:10:11;1.97;;;1.43;;
2011;SDS011;1009;51.436;6.972;2023-08-31T13:12:38;2.13;;;1.70;;
2011;SDS011;1009;51.436;6.972;2023-08-31T13:15:05;5.07;;;1.83;;
2011;SDS011;1009;51.436;6.972;2023-08-31T13:17:33;1.90;;;1.43;;
2011;SDS011;1009;51.436;6.972;2023-08-31T13:20:01;3.43;;;1.90;;
2011;SDS011;1009;51.436;6.972;2023-08-31T13:22:29;1.97;;;1.40;;
2011;SDS011;1009;51.436;6.972;2023-08-31T13:24:56;4.07;;;2.00;;
2011;SDS011;1009;51.436;6.972;2023-08-31T13:27:22;1.60;;;1.30;;
2011;SDS011;1009;51.436;6.972;2023-08-31T13:29:49;2.43;;;1.40;;
2011;SDS011;1009;51.436;6.972;2023-08-31T13:32:17;2.60;;;1.47;;
2011;SDS011;1009;51.436;6.972;2023-08-31T13:34:44;3.53;;;1.70;;
2011;SDS011;1009;51.436;6.972;2023-08-31T13:37:12;1.43;;;1.30;;
2011;SDS011;1009;51.436;6.972;2023-08-31T13:39:38;2.83;;;1.50;;
2011;SDS011;1009;51.436;6.972;2023-08-31T13:42:05;1.87;;;1.40;;
2011;SDS011;1009;51.436;6.972;2023-08-31T13:44:33;3.77;;;1.60;;
2011;SDS011;1009;51.436;6.972;2023-08-31T13:47:01;3.60;;;1.53;;
2011;SDS011;1009;51.436;6.972;2023-08-31T13:49:28;4.50;;;1.43;;
2011;SDS011;1009;51.436;6.972;2023-08-31T13:51:55;3.00;;;1.70;;
2011;SDS011;1009;51.436;6.972;2023-08-31T13:54:23;2.97;;;1.83;;
2011;SDS011;1009;51.436;6.972;2023-08-31T13:56:50;4.63;;;1.80;;
2011;SDS011;1009;51.436;6.972;2023-08-31T13:59:17;2.67;;;1.33;;
2011;SDS011;1009;51.436;6.972;2023-08-31T14:01:43;2.90;;;2.10;;
2011;SDS011;1009;51.436;6.972;2023-08-31T14:04:10;4.20;;;1.83;;
2011;SDS011;1009;51.436;6.972;2023-08-31T14:06:37;2.23;;;1.93;;
2011;SDS011;1009;51.436;6.972;2023-08-31T14:09:04;2.17;;;1.60;;
2011;SDS011;1009;51.436;6.972;2023-08-31T14:11:34;2.83;;;1.60;;
2011;SDS011;1009;51.436;6.972;2023-08-31T14:14:02;4.23;;;1.70;;
2011;SDS011;1009;51.436;6.972;2023-08-31T14:16:31;3.30;;;1.60;;
2011;SDS011;1009;51.436;6.972;2023-08-31T14:18:58;2.10;;;1.60;;
2011;SDS011;1009;51.436;6.972;2023-08-31T14:21:25;4.40;;;2.03;;
2011;SDS011;1009;51.436;6.972;2023-08-31T14:23:52;2.03;;;1.50;;
2011;SDS011;1009;51.436;6.972;2023-08-31T14:26:20;3.23;;;1.87;;
2011;SDS011;1009;51.436;6.972;2023-08-31T14:28:49;3.57;;;2.50;;
2011;SDS011;1009;51.436;6.972;2023-08-31T14:31:16;4.57;;;2.40;;
2011;SDS011;1009;51.436;6.972;2023-08-31T14:33:43;3.20;;;2.40;;
2011;SDS011;1009;51.436;6.972;2023-08-31T14:36:10;4.23;;;2.80;;
2011;SDS011;1009;51.436;6.972;2023-08-31T14:38:38;5.17;;;3.10;;
2011;SDS011;1009;51.436;6.972;2023-08-31T14:41:05;5.43;;;2.93;;
2011;SDS011;1009;51.436;6.972;2023-08-31T14:43:32;4.00;;;3.37;;
2011;SDS011;1009;51.436;6.972;2023-08-31T14:46:00;6.87;;;3.50;;
2011;SDS011;1009;51.436;6.972;2023-08-31T14:48:27;6.70;;;3.77;;
2011;SDS011;1009;51.436;6.972;2023-08-31T14:50:54;4.87;;;3.53;;
2011;SDS011;1009;51.436;6.972;2023-08-31T14:53:23;4.70;;;3.53;;
2011;SDS011;1009;51.436;6.972;2023-08-31T14:55:50;4.73;;;3.40;;
2011;SDS011;1009;51.436;6.972;2023-08-31T14:58:17;3.97;;;3.43;;
2011;SDS011;1009;51.436;6.972;2023-08-31T15:00:44;4.23;;;3.53;;
2011;SDS011;1009;51.436;6.972;2023-08-31T15:03:12;4.30;;;3.73;;
2011;SDS011;1009;51.436;6.972;2023-08-31T15:05:39;5.03;;;3.30;;
2011;SDS011;1009;51.436;6.972;2023-08-31T15:08:07;4.20;;;3.23;;
2011;SDS011;1009;51.436;6.972;2023-08-31T15:10:34;7.70;;;3.57;;
2011;SDS011;1009;51.436;6.972;2023-08-31T15:13:00;5.50;;;4.07;;
2011;SDS011;1009;51.436;6.972;2023-08-31T15:15:28;5.27;;;3.73;;
2011;SDS011;1009;51.436;6.972;2023-08-31T15:17:55;4.90;;;3.20;;
2011;SDS011;1009;51.436;6.972;2023-08-31T15:20:23;5.20;;;3.43;;
2011;SDS011;1009;51.436;6.972;2023-08-31T15:22:50;3.10;;;2.80;;
2011;SDS011;1009;51.436;6.972;2023-08-31T15:25:17;4.47;;;3.03;;